RYR363C LEMI-EGHH
Flight info
| Callsign | RYR363C |
|---|---|
| Flight time | 2h 20m |
| Altitude | 36000 |
| Route | ALT N851 MITOS N608 COMPI Y90 USKAR DCT MOPAS DCT GIROM DCT AGN DCT SECHE DCT UVELI DCT CNA DCT MANAK UY110 ORIST Y110 THRED |
| Aircraft | B738/M-SDE2E3FGHIRWXY/LB1 |
Departure
| Time | 2026-04-22 06:49 |
|---|---|
| Airport | Region of Murcia International Airport (LEMI) |
Arrival
| Time | 2026-04-22 09:09 |
|---|---|
| Airport | Bournemouth Airport (EGHH) |
| Time | Latitude | Longitude | Altitude | Speed | Heading |
|---|---|---|---|---|---|
| 2026-04-22 06:30 | 37.80448 | -1.12989 | 656 ft | 0 kts | 316° |
| 2026-04-22 06:41 | 37.80447 | -1.12988 | 656 ft | 1 kts | 316° |
| 2026-04-22 06:41 | 37.80437 | -1.12975 | 655 ft | 2 kts | 315° |
| 2026-04-22 06:42 | 37.80426 | -1.12962 | 654 ft | 1 kts | 316° |
| 2026-04-22 06:42 | 37.80419 | -1.12954 | 654 ft | 2 kts | 310° |
| 2026-04-22 06:42 | 37.80413 | -1.12936 | 653 ft | 2 kts | 283° |
| 2026-04-22 06:42 | 37.80412 | -1.12917 | 653 ft | 2 kts | 260° |
| 2026-04-22 06:43 | 37.80416 | -1.12899 | 652 ft | 2 kts | 238° |
| 2026-04-22 06:43 | 37.80421 | -1.12890 | 652 ft | 1 kts | 225° |
| 2026-04-22 06:43 | 37.80425 | -1.12885 | 652 ft | 0 kts | 226° |
| 2026-04-22 06:45 | 37.80421 | -1.12891 | 652 ft | 4 kts | 226° |
| 2026-04-22 06:45 | 37.80383 | -1.12940 | 652 ft | 12 kts | 226° |
| 2026-04-22 06:45 | 37.80314 | -1.13030 | 652 ft | 13 kts | 226° |
| 2026-04-22 06:45 | 37.80252 | -1.13110 | 654 ft | 11 kts | 226° |
| 2026-04-22 06:46 | 37.80182 | -1.13157 | 655 ft | 14 kts | 160° |
| 2026-04-22 06:46 | 37.80088 | -1.13081 | 648 ft | 15 kts | 190° |
| 2026-04-22 06:46 | 37.80008 | -1.13173 | 649 ft | 16 kts | 226° |
| 2026-04-22 06:46 | 37.79916 | -1.13292 | 650 ft | 21 kts | 226° |
| 2026-04-22 06:47 | 37.79799 | -1.13443 | 649 ft | 24 kts | 226° |
| 2026-04-22 06:47 | 37.79679 | -1.13598 | 647 ft | 24 kts | 226° |
| 2026-04-22 06:47 | 37.79561 | -1.13749 | 644 ft | 24 kts | 226° |
| 2026-04-22 06:47 | 37.79454 | -1.13849 | 641 ft | 16 kts | 171° |
| 2026-04-22 06:48 | 37.79398 | -1.13734 | 640 ft | 16 kts | 93° |
| 2026-04-22 06:48 | 37.79446 | -1.13586 | 641 ft | 25 kts | 46° |
| 2026-04-22 06:48 | 37.79702 | -1.13259 | 642 ft | 84 kts | 45° |
| 2026-04-22 06:48 | 37.80260 | -1.12540 | 638 ft | 140 kts | 45° |
| 2026-04-22 06:49 | 37.81032 | -1.11538 | 821 ft | 167 kts | 44° |
| 2026-04-22 06:49 | 37.81853 | -1.10508 | 1434 ft | 169 kts | 41° |
| 2026-04-22 06:49 | 37.82766 | -1.09532 | 1945 ft | 177 kts | 38° |
| 2026-04-22 06:49 | 37.83772 | -1.08493 | 2290 ft | 196 kts | 40° |
| 2026-04-22 06:50 | 37.84826 | -1.07312 | 2686 ft | 210 kts | 43° |
| 2026-04-22 06:50 | 37.85935 | -1.05966 | 3033 ft | 229 kts | 45° |
| 2026-04-22 06:50 | 37.87112 | -1.04505 | 3431 ft | 245 kts | 45° |
| 2026-04-22 06:50 | 37.88376 | -1.02962 | 3846 ft | 260 kts | 44° |
| 2026-04-22 06:51 | 37.89720 | -1.01345 | 4299 ft | 273 kts | 44° |
| 2026-04-22 06:51 | 37.91133 | -0.99654 | 4934 ft | 279 kts | 44° |
| 2026-04-22 06:51 | 37.92540 | -0.97970 | 5606 ft | 282 kts | 43° |
| 2026-04-22 06:51 | 37.93986 | -0.96239 | 6301 ft | 286 kts | 43° |
| 2026-04-22 06:52 | 37.95431 | -0.94507 | 6983 ft | 289 kts | 43° |
| 2026-04-22 06:52 | 37.96904 | -0.92741 | 7694 ft | 292 kts | 43° |
| 2026-04-22 06:52 | 37.98375 | -0.90977 | 8418 ft | 295 kts | 43° |
| 2026-04-22 06:52 | 37.99879 | -0.89173 | 9133 ft | 298 kts | 42° |
| 2026-04-22 06:53 | 38.01382 | -0.87371 | 9848 ft | 300 kts | 42° |
| 2026-04-22 06:53 | 38.02924 | -0.85524 | 10531 ft | 306 kts | 42° |
| 2026-04-22 06:53 | 38.04486 | -0.83654 | 11122 ft | 315 kts | 41° |
| 2026-04-22 06:53 | 38.06094 | -0.81728 | 11861 ft | 318 kts | 41° |
| 2026-04-22 06:54 | 38.07704 | -0.79797 | 12569 ft | 322 kts | 41° |
| 2026-04-22 06:54 | 38.09353 | -0.77821 | 13287 ft | 326 kts | 41° |
| 2026-04-22 06:54 | 38.11016 | -0.75828 | 14060 ft | 329 kts | 41° |
| 2026-04-22 06:54 | 38.12682 | -0.73837 | 14744 ft | 334 kts | 40° |
| 2026-04-22 06:55 | 38.14387 | -0.71812 | 15533 ft | 336 kts | 41° |
| 2026-04-22 06:55 | 38.16095 | -0.69789 | 16264 ft | 340 kts | 41° |
| 2026-04-22 06:55 | 38.17851 | -0.67708 | 16958 ft | 344 kts | 41° |
| 2026-04-22 06:55 | 38.19617 | -0.65614 | 17604 ft | 350 kts | 41° |
| 2026-04-22 06:56 | 38.21395 | -0.63502 | 18283 ft | 353 kts | 41° |
| 2026-04-22 06:56 | 38.23192 | -0.61365 | 18951 ft | 356 kts | 41° |
| 2026-04-22 06:56 | 38.24993 | -0.59166 | 19646 ft | 358 kts | 44° |
| 2026-04-22 06:56 | 38.26612 | -0.56719 | 20246 ft | 363 kts | 54° |
| 2026-04-22 06:57 | 38.27880 | -0.53950 | 20814 ft | 368 kts | 63° |
| 2026-04-22 06:57 | 38.28943 | -0.50960 | 21454 ft | 370 kts | 66° |
| 2026-04-22 06:57 | 38.29929 | -0.47875 | 22004 ft | 375 kts | 68° |
| 2026-04-22 06:57 | 38.30888 | -0.44762 | 22588 ft | 377 kts | 68° |
| 2026-04-22 06:58 | 38.31850 | -0.41629 | 23105 ft | 381 kts | 68° |
| 2026-04-22 06:58 | 38.32827 | -0.38469 | 23661 ft | 384 kts | 68° |
| 2026-04-22 06:58 | 38.33809 | -0.35322 | 24184 ft | 387 kts | 68° |
| 2026-04-22 06:58 | 38.34821 | -0.32101 | 24700 ft | 391 kts | 68° |
| 2026-04-22 06:59 | 38.35836 | -0.28882 | 25179 ft | 394 kts | 68° |
| 2026-04-22 06:59 | 38.36880 | -0.25620 | 25681 ft | 397 kts | 67° |
| 2026-04-22 06:59 | 38.37945 | -0.22388 | 26208 ft | 398 kts | 66° |
| 2026-04-22 06:59 | 38.39039 | -0.19111 | 26631 ft | 402 kts | 66° |
| 2026-04-22 07:00 | 38.40168 | -0.15807 | 27086 ft | 405 kts | 64° |
| 2026-04-22 07:00 | 38.41492 | -0.12656 | 27488 ft | 408 kts | 56° |
| 2026-04-22 07:00 | 38.43204 | -0.09754 | 27975 ft | 408 kts | 46° |
| 2026-04-22 07:00 | 38.45267 | -0.07246 | 28373 ft | 409 kts | 37° |
| 2026-04-22 07:01 | 38.47571 | -0.05087 | 28799 ft | 409 kts | 30° |
| 2026-04-22 07:01 | 38.50061 | -0.03323 | 29260 ft | 407 kts | 21° |
| 2026-04-22 07:01 | 38.52761 | -0.02109 | 29656 ft | 406 kts | 11° |
| 2026-04-22 07:01 | 38.55545 | -0.01452 | 30068 ft | 404 kts | 3° |
| 2026-04-22 07:02 | 38.58378 | -0.01162 | 30413 ft | 406 kts | 359° |
| 2026-04-22 07:02 | 38.61245 | -0.01072 | 30795 ft | 407 kts | 356° |
| 2026-04-22 07:02 | 38.64057 | -0.01071 | 31208 ft | 407 kts | 356° |
| 2026-04-22 07:02 | 38.66924 | -0.01096 | 31566 ft | 409 kts | 355° |
| 2026-04-22 07:03 | 38.69801 | -0.01122 | 31957 ft | 411 kts | 356° |
| 2026-04-22 07:03 | 38.72668 | -0.01137 | 32339 ft | 412 kts | 356° |
| 2026-04-22 07:03 | 38.75519 | -0.01143 | 32659 ft | 414 kts | 356° |
| 2026-04-22 07:03 | 38.78419 | -0.01139 | 33041 ft | 415 kts | 356° |
| 2026-04-22 07:04 | 38.81351 | -0.01129 | 33345 ft | 417 kts | 356° |
| 2026-04-22 07:04 | 38.84270 | -0.01115 | 33656 ft | 419 kts | 356° |
| 2026-04-22 07:04 | 38.87190 | -0.01098 | 33979 ft | 421 kts | 356° |
| 2026-04-22 07:04 | 38.90142 | -0.01080 | 34298 ft | 422 kts | 356° |
| 2026-04-22 07:05 | 38.93085 | -0.01060 | 34641 ft | 423 kts | 356° |
| 2026-04-22 07:05 | 38.96083 | -0.01039 | 35006 ft | 424 kts | 356° |
| 2026-04-22 07:05 | 38.99030 | -0.01018 | 35447 ft | 422 kts | 356° |
| 2026-04-22 07:05 | 39.01932 | -0.00996 | 35906 ft | 419 kts | 356° |
| 2026-04-22 07:06 | 39.04887 | -0.00976 | 35923 ft | 420 kts | 356° |
| 2026-04-22 07:06 | 39.10683 | -0.00933 | 35925 ft | 413 kts | 356° |
| 2026-04-22 07:07 | 39.16459 | -0.00895 | 35926 ft | 414 kts | 356° |
| 2026-04-22 07:07 | 39.22283 | -0.00858 | 35927 ft | 415 kts | 356° |
| 2026-04-22 07:08 | 39.28054 | -0.00821 | 35925 ft | 412 kts | 356° |
| 2026-04-22 07:08 | 39.33817 | -0.00610 | 35923 ft | 414 kts | 1° |
| 2026-04-22 07:09 | 39.39556 | 0.00700 | 35928 ft | 419 kts | 10° |
| 2026-04-22 07:09 | 39.45196 | 0.02745 | 35925 ft | 418 kts | 12° |
| 2026-04-22 07:10 | 39.50793 | 0.04898 | 35927 ft | 419 kts | 12° |
| 2026-04-22 07:10 | 39.56363 | 0.07021 | 35929 ft | 416 kts | 12° |
| 2026-04-22 07:11 | 39.61938 | 0.09120 | 35925 ft | 417 kts | 12° |
| 2026-04-22 07:11 | 39.67549 | 0.11215 | 35932 ft | 417 kts | 12° |
| 2026-04-22 07:12 | 39.73163 | 0.13306 | 35925 ft | 417 kts | 12° |
| 2026-04-22 07:12 | 39.78740 | 0.15385 | 35918 ft | 416 kts | 12° |
| 2026-04-22 07:13 | 39.84305 | 0.17464 | 35932 ft | 416 kts | 12° |
| 2026-04-22 07:13 | 39.89876 | 0.19548 | 35931 ft | 413 kts | 12° |
| 2026-04-22 07:14 | 39.95468 | 0.21641 | 35731 ft | 415 kts | 12° |
| 2026-04-22 07:14 | 39.98230 | 0.22676 | 35924 ft | 414 kts | 12° |
| 2026-04-22 07:14 | 40.01072 | 0.23740 | 35963 ft | 418 kts | 12° |
| 2026-04-22 07:15 | 40.06630 | 0.25826 | 35934 ft | 417 kts | 12° |
| 2026-04-22 07:15 | 40.12237 | 0.27930 | 35942 ft | 416 kts | 12° |
| 2026-04-22 07:16 | 40.17824 | 0.30036 | 35937 ft | 417 kts | 12° |
| 2026-04-22 07:16 | 40.23425 | 0.32148 | 35938 ft | 418 kts | 12° |
| 2026-04-22 07:17 | 40.29084 | 0.34285 | 35942 ft | 419 kts | 12° |
| 2026-04-22 07:17 | 40.34701 | 0.36413 | 35931 ft | 419 kts | 12° |
| 2026-04-22 07:18 | 40.40328 | 0.38551 | 35936 ft | 420 kts | 12° |
| 2026-04-22 07:18 | 40.45966 | 0.40699 | 35933 ft | 419 kts | 12° |
| 2026-04-22 07:19 | 40.51602 | 0.42850 | 35932 ft | 420 kts | 12° |
| 2026-04-22 07:19 | 40.57265 | 0.45012 | 35931 ft | 421 kts | 12° |
| 2026-04-22 07:20 | 40.62906 | 0.47171 | 35933 ft | 420 kts | 12° |
| 2026-04-22 07:20 | 40.68540 | 0.49330 | 35935 ft | 421 kts | 12° |
| 2026-04-22 07:21 | 40.74197 | 0.51501 | 35931 ft | 421 kts | 12° |
| 2026-04-22 07:21 | 40.79839 | 0.53674 | 35932 ft | 421 kts | 12° |
| 2026-04-22 07:22 | 40.85477 | 0.55845 | 35926 ft | 421 kts | 12° |
| 2026-04-22 07:22 | 40.91139 | 0.58031 | 35939 ft | 422 kts | 12° |
| 2026-04-22 07:23 | 40.96796 | 0.60218 | 35939 ft | 422 kts | 12° |
| 2026-04-22 07:23 | 41.02467 | 0.62415 | 35945 ft | 422 kts | 12° |
| 2026-04-22 07:24 | 41.08130 | 0.64612 | 35943 ft | 422 kts | 12° |
| 2026-04-22 07:24 | 41.13760 | 0.66801 | 35948 ft | 422 kts | 13° |
| 2026-04-22 07:25 | 41.19463 | 0.69021 | 35953 ft | 423 kts | 13° |
| 2026-04-22 07:25 | 41.25156 | 0.71240 | 35953 ft | 423 kts | 13° |
| 2026-04-22 07:26 | 41.30798 | 0.73443 | 35964 ft | 423 kts | 13° |
| 2026-04-22 07:26 | 41.36508 | 0.75679 | 35969 ft | 424 kts | 13° |
| 2026-04-22 07:27 | 41.42160 | 0.77896 | 35968 ft | 424 kts | 13° |
| 2026-04-22 07:27 | 41.47848 | 0.80131 | 35966 ft | 423 kts | 13° |
| 2026-04-22 07:28 | 41.56342 | 0.83477 | 35963 ft | 423 kts | 13° |
| 2026-04-22 07:28 | 41.62051 | 0.85730 | 35964 ft | 423 kts | 13° |
| 2026-04-22 07:29 | 41.67711 | 0.87967 | 35961 ft | 425 kts | 13° |
| 2026-04-22 07:29 | 41.73375 | 0.90209 | 35968 ft | 424 kts | 13° |
| 2026-04-22 07:30 | 41.79036 | 0.92456 | 35965 ft | 423 kts | 13° |
| 2026-04-22 07:30 | 41.84702 | 0.94710 | 35981 ft | 423 kts | 13° |
| 2026-04-22 07:31 | 41.90371 | 0.96967 | 35985 ft | 422 kts | 13° |
| 2026-04-22 07:31 | 41.96026 | 0.99222 | 36006 ft | 423 kts | 13° |
| 2026-04-22 07:32 | 42.01709 | 1.01494 | 36009 ft | 424 kts | 13° |
| 2026-04-22 07:32 | 42.07349 | 1.03754 | 36013 ft | 423 kts | 13° |
| 2026-04-22 07:33 | 42.13066 | 1.05808 | 36006 ft | 420 kts | 7° |
| 2026-04-22 07:33 | 42.18857 | 1.06284 | 36006 ft | 414 kts | 354° |
| 2026-04-22 07:34 | 42.24655 | 1.05718 | 36008 ft | 412 kts | 351° |
| 2026-04-22 07:34 | 42.30409 | 1.04987 | 36020 ft | 412 kts | 351° |
| 2026-04-22 07:35 | 42.36157 | 1.04290 | 36039 ft | 413 kts | 352° |
| 2026-04-22 07:35 | 42.41893 | 1.03635 | 36069 ft | 413 kts | 352° |
| 2026-04-22 07:36 | 42.47642 | 1.03001 | 36093 ft | 411 kts | 352° |
| 2026-04-22 07:36 | 42.53367 | 1.02374 | 36098 ft | 412 kts | 352° |
| 2026-04-22 07:37 | 42.59096 | 1.01747 | 36106 ft | 412 kts | 352° |
| 2026-04-22 07:37 | 42.64826 | 1.01120 | 36104 ft | 412 kts | 352° |
| 2026-04-22 07:38 | 42.70567 | 1.00491 | 36104 ft | 413 kts | 352° |
| 2026-04-22 07:38 | 42.76337 | 0.99857 | 36101 ft | 411 kts | 352° |
| 2026-04-22 07:39 | 42.82050 | 0.99229 | 36079 ft | 411 kts | 352° |
| 2026-04-22 07:39 | 42.87773 | 0.98602 | 36044 ft | 411 kts | 352° |
| 2026-04-22 07:40 | 42.93521 | 0.97968 | 36007 ft | 413 kts | 352° |
| 2026-04-22 07:40 | 42.99275 | 0.97332 | 35980 ft | 412 kts | 352° |
| 2026-04-22 07:41 | 43.04986 | 0.96703 | 35961 ft | 412 kts | 352° |
| 2026-04-22 07:41 | 43.10720 | 0.96068 | 35938 ft | 410 kts | 352° |
| 2026-04-22 07:42 | 43.16468 | 0.95431 | 35920 ft | 412 kts | 352° |
| 2026-04-22 07:42 | 43.22203 | 0.94791 | 35907 ft | 412 kts | 352° |
| 2026-04-22 07:43 | 43.27902 | 0.94156 | 35903 ft | 411 kts | 352° |
| 2026-04-22 07:43 | 43.33657 | 0.93513 | 35897 ft | 412 kts | 352° |
| 2026-04-22 07:44 | 43.39372 | 0.92873 | 35902 ft | 412 kts | 352° |
| 2026-04-22 07:44 | 43.45133 | 0.92227 | 35902 ft | 412 kts | 352° |
| 2026-04-22 07:45 | 43.50821 | 0.91589 | 35900 ft | 412 kts | 352° |
| 2026-04-22 07:45 | 43.56564 | 0.90944 | 35898 ft | 411 kts | 352° |
| 2026-04-22 07:46 | 43.62307 | 0.90297 | 35899 ft | 412 kts | 352° |
| 2026-04-22 07:46 | 43.68058 | 0.89646 | 35900 ft | 413 kts | 352° |
| 2026-04-22 07:47 | 43.73807 | 0.88995 | 35904 ft | 413 kts | 352° |
| 2026-04-22 07:47 | 43.79514 | 0.88349 | 35905 ft | 412 kts | 352° |
| 2026-04-22 07:48 | 43.85256 | 0.87651 | 35908 ft | 411 kts | 350° |
| 2026-04-22 07:48 | 43.90843 | 0.85913 | 35904 ft | 407 kts | 338° |
| 2026-04-22 07:49 | 43.96069 | 0.82859 | 35900 ft | 404 kts | 333° |
| 2026-04-22 07:49 | 44.01164 | 0.79492 | 35902 ft | 405 kts | 332° |
| 2026-04-22 07:50 | 44.06243 | 0.76123 | 35908 ft | 403 kts | 332° |
| 2026-04-22 07:50 | 44.11344 | 0.72778 | 35897 ft | 405 kts | 333° |
| 2026-04-22 07:51 | 44.16483 | 0.69429 | 35900 ft | 405 kts | 333° |
| 2026-04-22 07:51 | 44.21616 | 0.66086 | 35904 ft | 405 kts | 333° |
| 2026-04-22 07:52 | 44.26724 | 0.62759 | 35904 ft | 404 kts | 332° |
| 2026-04-22 07:52 | 44.31842 | 0.59420 | 35907 ft | 404 kts | 333° |
| 2026-04-22 07:53 | 44.36962 | 0.56072 | 35907 ft | 403 kts | 333° |
| 2026-04-22 07:53 | 44.42051 | 0.52739 | 35909 ft | 404 kts | 332° |
| 2026-04-22 07:54 | 44.44593 | 0.51070 | 36050 ft | 406 kts | 333° |
| 2026-04-22 07:54 | 44.47168 | 0.49372 | 35875 ft | 401 kts | 332° |
| 2026-04-22 07:54 | 44.49688 | 0.47702 | 36140 ft | 405 kts | 332° |
| 2026-04-22 07:54 | 44.52255 | 0.45996 | 35914 ft | 406 kts | 332° |
| 2026-04-22 07:55 | 44.57331 | 0.42621 | 35902 ft | 405 kts | 332° |
| 2026-04-22 07:55 | 44.59879 | 0.40923 | 36080 ft | 406 kts | 332° |
| 2026-04-22 07:55 | 44.62458 | 0.39205 | 35908 ft | 403 kts | 332° |
| 2026-04-22 07:56 | 44.67503 | 0.35842 | 35914 ft | 402 kts | 332° |
| 2026-04-22 07:56 | 44.72557 | 0.32464 | 35913 ft | 404 kts | 332° |
| 2026-04-22 07:57 | 44.77679 | 0.29036 | 35908 ft | 402 kts | 332° |
| 2026-04-22 07:57 | 44.82733 | 0.25649 | 35908 ft | 403 kts | 332° |
| 2026-04-22 07:58 | 44.87799 | 0.22243 | 35907 ft | 402 kts | 332° |
| 2026-04-22 07:58 | 44.92862 | 0.18834 | 35923 ft | 402 kts | 332° |
| 2026-04-22 07:59 | 44.97953 | 0.15400 | 35909 ft | 403 kts | 332° |
| 2026-04-22 07:59 | 45.03035 | 0.11965 | 35908 ft | 403 kts | 332° |
| 2026-04-22 08:00 | 45.08101 | 0.08531 | 35907 ft | 402 kts | 332° |
| 2026-04-22 08:00 | 45.13133 | 0.05116 | 35909 ft | 402 kts | 331° |
| 2026-04-22 08:01 | 45.18196 | 0.01675 | 35906 ft | 403 kts | 331° |
| 2026-04-22 08:01 | 45.23217 | -0.01745 | 35917 ft | 402 kts | 331° |
| 2026-04-22 08:02 | 45.25724 | -0.03455 | 35815 ft | 397 kts | 331° |
| 2026-04-22 08:02 | 45.28239 | -0.05173 | 35907 ft | 401 kts | 331° |
| 2026-04-22 08:02 | 45.33290 | -0.08629 | 35909 ft | 402 kts | 331° |
| 2026-04-22 08:03 | 45.38371 | -0.12108 | 35908 ft | 402 kts | 331° |
| 2026-04-22 08:03 | 45.43387 | -0.15554 | 35911 ft | 402 kts | 331° |
| 2026-04-22 08:04 | 45.48473 | -0.19056 | 35910 ft | 402 kts | 331° |
| 2026-04-22 08:04 | 45.53500 | -0.22520 | 35921 ft | 402 kts | 331° |
| 2026-04-22 08:05 | 45.58552 | -0.26012 | 35921 ft | 403 kts | 330° |
| 2026-04-22 08:05 | 45.63604 | -0.29544 | 35928 ft | 401 kts | 329° |
| 2026-04-22 08:06 | 45.68304 | -0.33741 | 35930 ft | 400 kts | 321° |
| 2026-04-22 08:06 | 45.72712 | -0.38583 | 35936 ft | 398 kts | 319° |
| 2026-04-22 08:07 | 45.77062 | -0.43555 | 35929 ft | 398 kts | 319° |
| 2026-04-22 08:07 | 45.81390 | -0.48496 | 35932 ft | 399 kts | 319° |
| 2026-04-22 08:08 | 45.85731 | -0.53436 | 35926 ft | 397 kts | 319° |
| 2026-04-22 08:08 | 45.90081 | -0.58386 | 35932 ft | 399 kts | 319° |
| 2026-04-22 08:09 | 45.94419 | -0.63323 | 35925 ft | 399 kts | 319° |
| 2026-04-22 08:09 | 45.98806 | -0.68327 | 35924 ft | 397 kts | 318° |
| 2026-04-22 08:10 | 46.03159 | -0.73292 | 35924 ft | 398 kts | 318° |
| 2026-04-22 08:10 | 46.07504 | -0.78260 | 35934 ft | 398 kts | 318° |
| 2026-04-22 08:11 | 46.11837 | -0.83230 | 35936 ft | 397 kts | 318° |
| 2026-04-22 08:11 | 46.16187 | -0.88230 | 35945 ft | 398 kts | 318° |
| 2026-04-22 08:12 | 46.20512 | -0.93214 | 35949 ft | 399 kts | 318° |
| 2026-04-22 08:12 | 46.24842 | -0.98212 | 35953 ft | 398 kts | 318° |
| 2026-04-22 08:13 | 46.29185 | -1.03234 | 35956 ft | 397 kts | 318° |
| 2026-04-22 08:13 | 46.33479 | -1.08210 | 35957 ft | 399 kts | 318° |
| 2026-04-22 08:14 | 46.37819 | -1.13253 | 35954 ft | 396 kts | 318° |
| 2026-04-22 08:14 | 46.42130 | -1.18268 | 35961 ft | 398 kts | 318° |
| 2026-04-22 08:15 | 46.46436 | -1.23291 | 35955 ft | 397 kts | 317° |
| 2026-04-22 08:15 | 46.50798 | -1.28391 | 35952 ft | 399 kts | 317° |
| 2026-04-22 08:16 | 46.55117 | -1.33449 | 35954 ft | 398 kts | 317° |
| 2026-04-22 08:16 | 46.59524 | -1.38410 | 35955 ft | 400 kts | 322° |
| 2026-04-22 08:17 | 46.64378 | -1.42463 | 35962 ft | 403 kts | 329° |
| 2026-04-22 08:17 | 46.69439 | -1.46012 | 35961 ft | 405 kts | 331° |
| 2026-04-22 08:18 | 46.74539 | -1.49536 | 35959 ft | 404 kts | 330° |
| 2026-04-22 08:18 | 46.79622 | -1.53089 | 35959 ft | 405 kts | 330° |
| 2026-04-22 08:19 | 46.84745 | -1.56584 | 35959 ft | 406 kts | 334° |
| 2026-04-22 08:19 | 46.90218 | -1.58756 | 35964 ft | 414 kts | 348° |
| 2026-04-22 08:20 | 46.96043 | -1.59537 | 35974 ft | 417 kts | 352° |
| 2026-04-22 08:20 | 47.01842 | -1.60019 | 35980 ft | 419 kts | 352° |
| 2026-04-22 08:21 | 47.07627 | -1.60515 | 35983 ft | 415 kts | 352° |
| 2026-04-22 08:21 | 47.13413 | -1.61055 | 35994 ft | 416 kts | 352° |
| 2026-04-22 08:22 | 47.19180 | -1.61660 | 35990 ft | 416 kts | 351° |
| 2026-04-22 08:22 | 47.24996 | -1.62428 | 36000 ft | 415 kts | 350° |
| 2026-04-22 08:23 | 47.30747 | -1.63231 | 35984 ft | 415 kts | 350° |
| 2026-04-22 08:23 | 47.36509 | -1.64035 | 35996 ft | 414 kts | 350° |
| 2026-04-22 08:24 | 47.42241 | -1.64853 | 36000 ft | 413 kts | 350° |
| 2026-04-22 08:24 | 47.47993 | -1.65681 | 36004 ft | 414 kts | 349° |
| 2026-04-22 08:25 | 47.53761 | -1.66511 | 36019 ft | 414 kts | 349° |
| 2026-04-22 08:25 | 47.59483 | -1.67334 | 36023 ft | 414 kts | 349° |
| 2026-04-22 08:26 | 47.65272 | -1.68165 | 36030 ft | 416 kts | 349° |
| 2026-04-22 08:26 | 47.70993 | -1.68982 | 36021 ft | 414 kts | 349° |
| 2026-04-22 08:27 | 47.76739 | -1.69805 | 36023 ft | 414 kts | 349° |
| 2026-04-22 08:27 | 47.82488 | -1.70632 | 36028 ft | 414 kts | 349° |
| 2026-04-22 08:28 | 47.88214 | -1.71458 | 36043 ft | 415 kts | 349° |
| 2026-04-22 08:28 | 47.93966 | -1.72290 | 36054 ft | 413 kts | 349° |
| 2026-04-22 08:29 | 47.99685 | -1.73119 | 36057 ft | 414 kts | 349° |
| 2026-04-22 08:29 | 48.05413 | -1.73952 | 36063 ft | 413 kts | 349° |
| 2026-04-22 08:30 | 48.11191 | -1.74432 | 36061 ft | 417 kts | 354° |
| 2026-04-22 08:30 | 48.16982 | -1.74462 | 36064 ft | 417 kts | 355° |
| 2026-04-22 08:31 | 48.22769 | -1.74450 | 36063 ft | 416 kts | 354° |
| 2026-04-22 08:32 | 48.31468 | -1.74490 | 36060 ft | 415 kts | 354° |
| 2026-04-22 08:32 | 48.37239 | -1.74547 | 36064 ft | 415 kts | 354° |
| 2026-04-22 08:33 | 48.43036 | -1.74611 | 36067 ft | 414 kts | 354° |
| 2026-04-22 08:33 | 48.48780 | -1.74681 | 36070 ft | 414 kts | 354° |
| 2026-04-22 08:34 | 48.54602 | -1.74753 | 36072 ft | 415 kts | 354° |
| 2026-04-22 08:34 | 48.60371 | -1.74823 | 36081 ft | 414 kts | 354° |
| 2026-04-22 08:35 | 48.66143 | -1.74893 | 36081 ft | 415 kts | 354° |
| 2026-04-22 08:35 | 48.71899 | -1.74963 | 36083 ft | 414 kts | 354° |
| 2026-04-22 08:36 | 48.77649 | -1.75033 | 36083 ft | 414 kts | 354° |
| 2026-04-22 08:36 | 48.83436 | -1.75103 | 36090 ft | 414 kts | 354° |
| 2026-04-22 08:36 | 48.86313 | -1.75136 | 35986 ft | 409 kts | 354° |
| 2026-04-22 08:37 | 48.89142 | -1.75166 | 35681 ft | 403 kts | 354° |
| 2026-04-22 08:37 | 48.91933 | -1.75190 | 35209 ft | 402 kts | 354° |
| 2026-04-22 08:37 | 48.94702 | -1.75148 | 34762 ft | 401 kts | 355° |
| 2026-04-22 08:37 | 48.97481 | -1.75047 | 34246 ft | 399 kts | 356° |
| 2026-04-22 08:38 | 49.00271 | -1.74921 | 33752 ft | 396 kts | 356° |
| 2026-04-22 08:38 | 49.02978 | -1.74796 | 33270 ft | 393 kts | 357° |
| 2026-04-22 08:38 | 49.05696 | -1.74673 | 32801 ft | 389 kts | 357° |
| 2026-04-22 08:38 | 49.08406 | -1.74555 | 32334 ft | 386 kts | 357° |
| 2026-04-22 08:39 | 49.11079 | -1.74442 | 31864 ft | 383 kts | 357° |
| 2026-04-22 08:39 | 49.13740 | -1.74335 | 31392 ft | 380 kts | 358° |
| 2026-04-22 08:39 | 49.16407 | -1.74229 | 30910 ft | 378 kts | 358° |
| 2026-04-22 08:39 | 49.18970 | -1.74130 | 30455 ft | 375 kts | 358° |
| 2026-04-22 08:40 | 49.21582 | -1.74030 | 29988 ft | 372 kts | 358° |
| 2026-04-22 08:40 | 49.24154 | -1.73932 | 29537 ft | 368 kts | 358° |
| 2026-04-22 08:40 | 49.26706 | -1.73834 | 29073 ft | 365 kts | 358° |
| 2026-04-22 08:40 | 49.29215 | -1.73737 | 28629 ft | 362 kts | 358° |
| 2026-04-22 08:41 | 49.31724 | -1.73639 | 28185 ft | 359 kts | 359° |
| 2026-04-22 08:41 | 49.34194 | -1.73543 | 27741 ft | 355 kts | 359° |
| 2026-04-22 08:41 | 49.36657 | -1.73448 | 27298 ft | 352 kts | 359° |
| 2026-04-22 08:41 | 49.39100 | -1.73354 | 26864 ft | 349 kts | 359° |
| 2026-04-22 08:42 | 49.41516 | -1.73261 | 26430 ft | 345 kts | 359° |
| 2026-04-22 08:42 | 49.43914 | -1.73168 | 25994 ft | 342 kts | 359° |
| 2026-04-22 08:42 | 49.46278 | -1.73077 | 25572 ft | 339 kts | 359° |
| 2026-04-22 08:42 | 49.48602 | -1.72987 | 25151 ft | 336 kts | 359° |
| 2026-04-22 08:43 | 49.50961 | -1.72897 | 24739 ft | 333 kts | 360° |
| 2026-04-22 08:43 | 49.53245 | -1.72809 | 24330 ft | 330 kts | 360° |
| 2026-04-22 08:43 | 49.55538 | -1.72721 | 23915 ft | 327 kts | 0° |
| 2026-04-22 08:43 | 49.57793 | -1.72646 | 23515 ft | 324 kts | 359° |
| 2026-04-22 08:44 | 49.60039 | -1.72763 | 23096 ft | 321 kts | 354° |
| 2026-04-22 08:44 | 49.62261 | -1.73213 | 22683 ft | 319 kts | 349° |
| 2026-04-22 08:44 | 49.64427 | -1.73825 | 22286 ft | 316 kts | 348° |
| 2026-04-22 08:44 | 49.66601 | -1.74494 | 21893 ft | 313 kts | 348° |
| 2026-04-22 08:45 | 49.68729 | -1.75154 | 21500 ft | 311 kts | 348° |
| 2026-04-22 08:45 | 49.70858 | -1.75808 | 21107 ft | 315 kts | 348° |
| 2026-04-22 08:45 | 49.73065 | -1.76475 | 20685 ft | 328 kts | 348° |
| 2026-04-22 08:45 | 49.75326 | -1.77152 | 20263 ft | 327 kts | 349° |
| 2026-04-22 08:46 | 49.77541 | -1.77811 | 19860 ft | 324 kts | 349° |
| 2026-04-22 08:46 | 49.79748 | -1.78467 | 19450 ft | 321 kts | 349° |
| 2026-04-22 08:46 | 49.81917 | -1.79112 | 19032 ft | 318 kts | 349° |
| 2026-04-22 08:46 | 49.84090 | -1.79757 | 18631 ft | 315 kts | 349° |
| 2026-04-22 08:47 | 49.86244 | -1.80397 | 18235 ft | 312 kts | 349° |
| 2026-04-22 08:47 | 49.88369 | -1.81029 | 17842 ft | 309 kts | 349° |
| 2026-04-22 08:47 | 49.90479 | -1.81657 | 17450 ft | 307 kts | 349° |
| 2026-04-22 08:47 | 49.92579 | -1.82283 | 17060 ft | 304 kts | 349° |
| 2026-04-22 08:48 | 49.94646 | -1.82900 | 16672 ft | 302 kts | 349° |
| 2026-04-22 08:48 | 49.96698 | -1.83512 | 16291 ft | 300 kts | 350° |
| 2026-04-22 08:48 | 49.98754 | -1.84069 | 15885 ft | 299 kts | 353° |
| 2026-04-22 08:48 | 50.00813 | -1.84341 | 15508 ft | 296 kts | 360° |
| 2026-04-22 08:49 | 50.02859 | -1.84246 | 15152 ft | 292 kts | 5° |
| 2026-04-22 08:49 | 50.04883 | -1.83966 | 14786 ft | 290 kts | 7° |
| 2026-04-22 08:49 | 50.06879 | -1.83645 | 14412 ft | 288 kts | 7° |
| 2026-04-22 08:49 | 50.08861 | -1.83338 | 14043 ft | 287 kts | 7° |
| 2026-04-22 08:50 | 50.10856 | -1.83048 | 13674 ft | 285 kts | 6° |
| 2026-04-22 08:50 | 50.12810 | -1.82777 | 13315 ft | 283 kts | 7° |
| 2026-04-22 08:50 | 50.14746 | -1.82325 | 12954 ft | 280 kts | 15° |
| 2026-04-22 08:50 | 50.16636 | -1.81555 | 12602 ft | 277 kts | 19° |
| 2026-04-22 08:51 | 50.18468 | -1.80688 | 12252 ft | 275 kts | 20° |
| 2026-04-22 08:51 | 50.20299 | -1.79813 | 11902 ft | 274 kts | 19° |
| 2026-04-22 08:51 | 50.22125 | -1.78963 | 11553 ft | 272 kts | 19° |
| 2026-04-22 08:51 | 50.23942 | -1.78136 | 11208 ft | 270 kts | 20° |
| 2026-04-22 08:52 | 50.25799 | -1.77296 | 10866 ft | 282 kts | 20° |
| 2026-04-22 08:52 | 50.27720 | -1.76425 | 10484 ft | 289 kts | 20° |
| 2026-04-22 08:52 | 50.29651 | -1.75557 | 10153 ft | 285 kts | 20° |
| 2026-04-22 08:52 | 50.31516 | -1.74723 | 9925 ft | 278 kts | 20° |
| 2026-04-22 08:53 | 50.33389 | -1.73879 | 9557 ft | 276 kts | 21° |
| 2026-04-22 08:53 | 50.35238 | -1.73043 | 9213 ft | 274 kts | 21° |
| 2026-04-22 08:53 | 50.37062 | -1.72216 | 8872 ft | 272 kts | 21° |
| 2026-04-22 08:53 | 50.38873 | -1.71395 | 8533 ft | 270 kts | 21° |
| 2026-04-22 08:54 | 50.40673 | -1.70579 | 8200 ft | 267 kts | 22° |
| 2026-04-22 08:54 | 50.42447 | -1.69773 | 7870 ft | 265 kts | 22° |
| 2026-04-22 08:54 | 50.44216 | -1.68970 | 7554 ft | 262 kts | 22° |
| 2026-04-22 08:54 | 50.45953 | -1.68184 | 7410 ft | 252 kts | 22° |
| 2026-04-22 08:55 | 50.47584 | -1.67449 | 7338 ft | 240 kts | 22° |
| 2026-04-22 08:55 | 50.49157 | -1.66737 | 7270 ft | 229 kts | 23° |
| 2026-04-22 08:55 | 50.50633 | -1.65929 | 7226 ft | 223 kts | 30° |
| 2026-04-22 08:55 | 50.52089 | -1.64921 | 7226 ft | 229 kts | 32° |
| 2026-04-22 08:56 | 50.53541 | -1.63877 | 7230 ft | 229 kts | 31° |
| 2026-04-22 08:56 | 50.55017 | -1.62836 | 7229 ft | 229 kts | 31° |
| 2026-04-22 08:56 | 50.56466 | -1.61827 | 7231 ft | 229 kts | 31° |
| 2026-04-22 08:56 | 50.57927 | -1.60815 | 7235 ft | 229 kts | 31° |
| 2026-04-22 08:57 | 50.59398 | -1.59795 | 7234 ft | 229 kts | 31° |
| 2026-04-22 08:57 | 50.60855 | -1.58784 | 7231 ft | 228 kts | 31° |
| 2026-04-22 08:57 | 50.62308 | -1.57775 | 7233 ft | 227 kts | 31° |
| 2026-04-22 08:57 | 50.63753 | -1.56788 | 7237 ft | 229 kts | 28° |
| 2026-04-22 08:58 | 50.65349 | -1.56209 | 7231 ft | 241 kts | 5° |
| 2026-04-22 08:58 | 50.67001 | -1.56945 | 7237 ft | 255 kts | 332° |
| 2026-04-22 08:58 | 50.68245 | -1.58878 | 7028 ft | 255 kts | 306° |
| 2026-04-22 08:58 | 50.69166 | -1.61297 | 6769 ft | 252 kts | 301° |
| 2026-04-22 08:59 | 50.70025 | -1.63683 | 6513 ft | 249 kts | 301° |
| 2026-04-22 08:59 | 50.70895 | -1.66043 | 6259 ft | 246 kts | 302° |
| 2026-04-22 08:59 | 50.71764 | -1.68350 | 6007 ft | 244 kts | 303° |
| 2026-04-22 08:59 | 50.72636 | -1.70652 | 5751 ft | 242 kts | 303° |
| 2026-04-22 09:00 | 50.73509 | -1.72955 | 5494 ft | 241 kts | 303° |
| 2026-04-22 09:00 | 50.74365 | -1.75219 | 5239 ft | 239 kts | 303° |
| 2026-04-22 09:00 | 50.75208 | -1.77454 | 5011 ft | 235 kts | 303° |
| 2026-04-22 09:00 | 50.76047 | -1.79681 | 4744 ft | 231 kts | 304° |
| 2026-04-22 09:01 | 50.76856 | -1.81830 | 4623 ft | 225 kts | 304° |
| 2026-04-22 09:01 | 50.77630 | -1.84021 | 4626 ft | 231 kts | 296° |
| 2026-04-22 09:01 | 50.78027 | -1.86491 | 4624 ft | 232 kts | 273° |
| 2026-04-22 09:01 | 50.78109 | -1.89057 | 4626 ft | 231 kts | 271° |
| 2026-04-22 09:02 | 50.78198 | -1.91613 | 4626 ft | 232 kts | 272° |
| 2026-04-22 09:02 | 50.78315 | -1.94152 | 4604 ft | 233 kts | 273° |
| 2026-04-22 09:02 | 50.78443 | -1.96708 | 4399 ft | 229 kts | 274° |
| 2026-04-22 09:02 | 50.78570 | -1.99204 | 4192 ft | 224 kts | 273° |
| 2026-04-22 09:03 | 50.78692 | -2.01627 | 3995 ft | 220 kts | 273° |
| 2026-04-22 09:03 | 50.78812 | -2.04041 | 3796 ft | 215 kts | 273° |
| 2026-04-22 09:03 | 50.78881 | -2.06384 | 3580 ft | 211 kts | 259° |
| 2026-04-22 09:03 | 50.78350 | -2.08429 | 3378 ft | 197 kts | 219° |
| 2026-04-22 09:04 | 50.77330 | -2.09747 | 3181 ft | 183 kts | 197° |
| 2026-04-22 09:04 | 50.76180 | -2.10472 | 2974 ft | 169 kts | 173° |
| 2026-04-22 09:04 | 50.75147 | -2.10113 | 2807 ft | 142 kts | 131° |
| 2026-04-22 09:04 | 50.74652 | -2.08854 | 2715 ft | 133 kts | 105° |
| 2026-04-22 09:05 | 50.74451 | -2.07445 | 2620 ft | 133 kts | 95° |
| 2026-04-22 09:05 | 50.74474 | -2.05979 | 2472 ft | 133 kts | 84° |
| 2026-04-22 09:05 | 50.74638 | -2.04542 | 2365 ft | 133 kts | 80° |
| 2026-04-22 09:05 | 50.74851 | -2.03118 | 2323 ft | 133 kts | 78° |
| 2026-04-22 09:06 | 50.75085 | -2.01683 | 2236 ft | 136 kts | 78° |
| 2026-04-22 09:06 | 50.75325 | -2.00229 | 2014 ft | 135 kts | 77° |
| 2026-04-22 09:06 | 50.75566 | -1.98812 | 1833 ft | 134 kts | 77° |
| 2026-04-22 09:06 | 50.75802 | -1.97390 | 1658 ft | 134 kts | 77° |
| 2026-04-22 09:07 | 50.76045 | -1.95972 | 1503 ft | 132 kts | 76° |
| 2026-04-22 09:07 | 50.76275 | -1.94595 | 1307 ft | 125 kts | 77° |
| 2026-04-22 09:07 | 50.76495 | -1.93285 | 1110 ft | 122 kts | 76° |
| 2026-04-22 09:07 | 50.76707 | -1.92007 | 953 ft | 121 kts | 76° |
| 2026-04-22 09:08 | 50.76928 | -1.90697 | 782 ft | 123 kts | 75° |
| 2026-04-22 09:08 | 50.77152 | -1.89392 | 621 ft | 124 kts | 75° |
| 2026-04-22 09:08 | 50.77367 | -1.88047 | 459 ft | 125 kts | 75° |
| 2026-04-22 09:08 | 50.77600 | -1.86705 | 258 ft | 127 kts | 74° |
| 2026-04-22 09:09 | 50.77823 | -1.85355 | 95 ft | 128 kts | 74° |
| 2026-04-22 09:09 | 50.78030 | -1.84119 | 38 ft | 82 kts | 75° |
| 2026-04-22 09:09 | 50.78110 | -1.83625 | 38 ft | 19 kts | 76° |
| 2026-04-22 09:09 | 50.78144 | -1.83422 | 39 ft | 22 kts | 74° |
| 2026-04-22 09:10 | 50.78188 | -1.83178 | 41 ft | 22 kts | 75° |
| 2026-04-22 09:10 | 50.78175 | -1.83041 | 41 ft | 10 kts | 172° |
| 2026-04-22 09:10 | 50.78109 | -1.83127 | 41 ft | 16 kts | 235° |
| 2026-04-22 09:10 | 50.78040 | -1.83301 | 41 ft | 19 kts | 243° |
| 2026-04-22 09:11 | 50.77965 | -1.83479 | 38 ft | 20 kts | 209° |
| 2026-04-22 09:11 | 50.77856 | -1.83479 | 38 ft | 9 kts | 169° |
| 2026-04-22 09:11 | 50.77844 | -1.83413 | 39 ft | 6 kts | 86° |
| 2026-04-22 09:11 | 50.77844 | -1.83388 | 40 ft | 0 kts | 86° |